Etusivu
METAR-TAF:

METAR-TAF

Lentoasemat :

Dušanbe, Tadžikistan

Dušanben kansainvälinen lentoasema

Leveyspiiri: 38-33N, Pituuspiiri: 068-47E, korkeus merenpinnasta: 803 m

Tämänhetkinen sää

Tämä raportti tehtiin 42 minuuttia sitten, kello 04.30 UTC
Tuuli 2 kn eri suunnista
Lämpötila 21°C
Kosteus 40%
Ilmanpaine 1015 hPa
Näkyvyys 10 km tai enemmän

METAR: UTDD 210430Z VRB01MPS 9999 NSC 21/07 Q1015 R09/D NOSIG RMK QFE693/0924

Aika: 10:12 (05:12 UTC)

Sääennuste

Tämä raportti tehtiin 2 tuntia ja 12 minuuttia sitten, kello 03.00 UTC
Ennuste voimassa 21. päivästä klo 04 UTC - 21. päivään klo 16 UTC
Tuuli 4 kn eri suunnista
Näkyvyys: 6000 m
Muutamia pilviä 6600 ft:n korkeudessa, Cumulonimbus.
Hajanaisia pilviä 10000 ft:n korkeudessa
Ajoittain
21. päivästä klo 07 UTC - 21. päivään klo 16 UTC
Tuuli 14 kn lännestä

TAF: UTDD 210300Z 2104/2116 VRB02MPS 6000 FEW066CB SCT100 TEMPO 2107/2116 27007MPS

Säähavainnot ja -ennusteet yli 4000 lentoasemalta (METAR- ja TAF-raportit).

Käytössä olevat sääasemat on merkitty karttaan keltaisilla ja punaisilla pisteillä.

Aseta hiiri pisteen päälle nähdäksesi sääaseman nimen.

Klikkaa sitten nähdäksesi säähavainnot ja -ennusteet.

Kartan vaihtaminen: klikkaa mustalla rastilla varustettuja vihreitä pisteitä, niin voit zoomata sisään; viivalla varustettua vihreää pistettä, niin voit zoomata ulos tai vihreitä nuolia, niin pääset viereisille kartoille.


METAR-TAF: